K36 EFHK-EFUT
Flight info
| Callsign | K36 |
|---|---|
| Flight time | 0h 37m |
| Altitude | 4000 |
| Route | TURFI LINJA |
| Aircraft | G115/L-SDGR/C |
Departure
| Time | 2026-04-26 12:15 |
|---|---|
| Airport | Helsinki Vantaa Airport (EFHK) |
Arrival
| Time | 2026-04-26 12:52 |
|---|---|
| Airport | Utti Air Base (EFUT) |
| Time | Latitude | Longitude | Altitude | Speed | Heading |
|---|---|---|---|---|---|
| 2026-04-26 11:38 | 60.30848 | 24.97960 | 156 ft | 0 kts | 208° |
| 2026-04-26 11:49 | 60.30845 | 24.97957 | 156 ft | 0 kts | 204° |
| 2026-04-26 11:52 | 60.30845 | 24.97958 | 156 ft | 0 kts | 204° |
| 2026-04-26 11:56 | 60.30845 | 24.97957 | 156 ft | 0 kts | 204° |
| 2026-04-26 12:06 | 60.30845 | 24.97958 | 156 ft | 0 kts | 204° |
| 2026-04-26 12:08 | 60.30841 | 24.97957 | 156 ft | 5 kts | 169° |
| 2026-04-26 12:08 | 60.30838 | 24.98021 | 156 ft | 0 kts | 61° |
| 2026-04-26 12:09 | 60.30868 | 24.98076 | 156 ft | 13 kts | 40° |
| 2026-04-26 12:09 | 60.30941 | 24.98204 | 156 ft | 6 kts | 48° |
| 2026-04-26 12:10 | 60.30966 | 24.98280 | 155 ft | 7 kts | 56° |
| 2026-04-26 12:10 | 60.30974 | 24.98315 | 155 ft | 0 kts | 70° |
| 2026-04-26 12:12 | 60.30978 | 24.98330 | 155 ft | 5 kts | 60° |
| 2026-04-26 12:12 | 60.31011 | 24.98448 | 150 ft | 12 kts | 60° |
| 2026-04-26 12:12 | 60.31033 | 24.98491 | 150 ft | 6 kts | 357° |
| 2026-04-26 12:13 | 60.31230 | 24.98295 | 151 ft | 52 kts | 333° |
| 2026-04-26 12:13 | 60.31570 | 24.97959 | 300 ft | 58 kts | 333° |
| 2026-04-26 12:13 | 60.31973 | 24.97582 | 349 ft | 73 kts | 343° |
| 2026-04-26 12:13 | 60.32562 | 24.97672 | 360 ft | 90 kts | 358° |
| 2026-04-26 12:14 | 60.33223 | 24.97949 | 399 ft | 105 kts | 13° |
| 2026-04-26 12:14 | 60.33901 | 24.98492 | 551 ft | 105 kts | 11° |
| 2026-04-26 12:14 | 60.34595 | 24.98943 | 625 ft | 109 kts | 7° |
| 2026-04-26 12:14 | 60.35329 | 24.99247 | 727 ft | 106 kts | 1° |
| 2026-04-26 12:15 | 60.36061 | 24.99356 | 806 ft | 105 kts | 354° |
| 2026-04-26 12:15 | 60.36764 | 24.98958 | 824 ft | 106 kts | 339° |
| 2026-04-26 12:15 | 60.37466 | 24.98454 | 836 ft | 108 kts | 340° |
| 2026-04-26 12:15 | 60.38220 | 24.98514 | 838 ft | 116 kts | 14° |
| 2026-04-26 12:16 | 60.38971 | 24.99118 | 830 ft | 116 kts | 12° |
| 2026-04-26 12:16 | 60.39738 | 24.99625 | 831 ft | 116 kts | 9° |
| 2026-04-26 12:16 | 60.40526 | 24.99997 | 822 ft | 116 kts | 4° |
| 2026-04-26 12:16 | 60.41321 | 25.00315 | 829 ft | 119 kts | 12° |
| 2026-04-26 12:17 | 60.42058 | 25.01164 | 840 ft | 123 kts | 22° |
| 2026-04-26 12:17 | 60.42782 | 25.01521 | 833 ft | 107 kts | 349° |
| 2026-04-26 12:17 | 60.43539 | 25.01296 | 775 ft | 114 kts | 350° |
| 2026-04-26 12:17 | 60.44324 | 25.01568 | 604 ft | 139 kts | 46° |
| 2026-04-26 12:18 | 60.44549 | 25.03383 | 1009 ft | 111 kts | 62° |
| 2026-04-26 12:18 | 60.44687 | 25.04710 | 1543 ft | 86 kts | 58° |
| 2026-04-26 12:18 | 60.44803 | 25.05835 | 1843 ft | 80 kts | 52° |
| 2026-04-26 12:18 | 60.45012 | 25.06880 | 2069 ft | 78 kts | 42° |
| 2026-04-26 12:19 | 60.45216 | 25.07740 | 2450 ft | 65 kts | 36° |
| 2026-04-26 12:19 | 60.45514 | 25.08574 | 2609 ft | 77 kts | 30° |
| 2026-04-26 12:19 | 60.45862 | 25.09369 | 2918 ft | 79 kts | 33° |
| 2026-04-26 12:19 | 60.46139 | 25.10406 | 3189 ft | 85 kts | 44° |
| 2026-04-26 12:20 | 60.46435 | 25.11389 | 3475 ft | 77 kts | 36° |
| 2026-04-26 12:20 | 60.46775 | 25.12296 | 3703 ft | 70 kts | 28° |
| 2026-04-26 12:20 | 60.47145 | 25.13013 | 3850 ft | 78 kts | 24° |
| 2026-04-26 12:20 | 60.47588 | 25.13635 | 4000 ft | 79 kts | 15° |
| 2026-04-26 12:21 | 60.48047 | 25.14500 | 3994 ft | 102 kts | 38° |
| 2026-04-26 12:21 | 60.48557 | 25.15444 | 4005 ft | 100 kts | 24° |
| 2026-04-26 12:21 | 60.49000 | 25.16653 | 4014 ft | 122 kts | 58° |
| 2026-04-26 12:21 | 60.49233 | 25.18345 | 4018 ft | 125 kts | 57° |
| 2026-04-26 12:22 | 60.49501 | 25.20033 | 4020 ft | 126 kts | 56° |
| 2026-04-26 12:22 | 60.49785 | 25.21723 | 4005 ft | 126 kts | 55° |
| 2026-04-26 12:22 | 60.50111 | 25.23348 | 4014 ft | 123 kts | 51° |
| 2026-04-26 12:22 | 60.50467 | 25.24917 | 4008 ft | 122 kts | 50° |
| 2026-04-26 12:23 | 60.50822 | 25.26478 | 4001 ft | 122 kts | 50° |
| 2026-04-26 12:23 | 60.51161 | 25.28032 | 4013 ft | 122 kts | 51° |
| 2026-04-26 12:23 | 60.51503 | 25.29618 | 4007 ft | 123 kts | 51° |
| 2026-04-26 12:23 | 60.51844 | 25.31202 | 4000 ft | 122 kts | 51° |
| 2026-04-26 12:24 | 60.52188 | 25.32778 | 3999 ft | 122 kts | 51° |
| 2026-04-26 12:24 | 60.52530 | 25.34350 | 4006 ft | 122 kts | 51° |
| 2026-04-26 12:24 | 60.52877 | 25.35927 | 4007 ft | 123 kts | 51° |
| 2026-04-26 12:25 | 60.53558 | 25.39096 | 4011 ft | 123 kts | 51° |
| 2026-04-26 12:25 | 60.53907 | 25.40687 | 4000 ft | 122 kts | 51° |
| 2026-04-26 12:25 | 60.54248 | 25.42259 | 3986 ft | 121 kts | 51° |
| 2026-04-26 12:25 | 60.54583 | 25.43814 | 3995 ft | 120 kts | 51° |
| 2026-04-26 12:26 | 60.54920 | 25.45365 | 3996 ft | 120 kts | 51° |
| 2026-04-26 12:26 | 60.55259 | 25.46924 | 4007 ft | 121 kts | 51° |
| 2026-04-26 12:26 | 60.55597 | 25.48496 | 4001 ft | 121 kts | 51° |
| 2026-04-26 12:26 | 60.55934 | 25.50069 | 3990 ft | 121 kts | 51° |
| 2026-04-26 12:27 | 60.56266 | 25.51612 | 3988 ft | 120 kts | 51° |
| 2026-04-26 12:27 | 60.56602 | 25.53172 | 4003 ft | 121 kts | 51° |
| 2026-04-26 12:27 | 60.56943 | 25.54739 | 4003 ft | 121 kts | 51° |
| 2026-04-26 12:27 | 60.57281 | 25.56307 | 3997 ft | 121 kts | 51° |
| 2026-04-26 12:28 | 60.57619 | 25.57880 | 3990 ft | 121 kts | 51° |
| 2026-04-26 12:28 | 60.57955 | 25.59449 | 3993 ft | 121 kts | 51° |
| 2026-04-26 12:28 | 60.58293 | 25.61022 | 3997 ft | 122 kts | 51° |
| 2026-04-26 12:28 | 60.58632 | 25.62598 | 3986 ft | 121 kts | 51° |
| 2026-04-26 12:29 | 60.58968 | 25.64168 | 3991 ft | 121 kts | 51° |
| 2026-04-26 12:29 | 60.59305 | 25.65738 | 3991 ft | 121 kts | 51° |
| 2026-04-26 12:29 | 60.59967 | 25.68853 | 3997 ft | 119 kts | 51° |
| 2026-04-26 12:30 | 60.60305 | 25.70408 | 4008 ft | 121 kts | 51° |
| 2026-04-26 12:30 | 60.60643 | 25.71983 | 3986 ft | 121 kts | 51° |
| 2026-04-26 12:30 | 60.60973 | 25.73547 | 3982 ft | 120 kts | 51° |
| 2026-04-26 12:31 | 60.61633 | 25.76639 | 3978 ft | 120 kts | 51° |
| 2026-04-26 12:31 | 60.61964 | 25.78188 | 3988 ft | 119 kts | 51° |
| 2026-04-26 12:31 | 60.62297 | 25.79739 | 3987 ft | 120 kts | 51° |
| 2026-04-26 12:31 | 60.62627 | 25.81300 | 3998 ft | 121 kts | 52° |
| 2026-04-26 12:32 | 60.62960 | 25.82876 | 3993 ft | 122 kts | 52° |
| 2026-04-26 12:32 | 60.63296 | 25.84460 | 3999 ft | 122 kts | 52° |
| 2026-04-26 12:32 | 60.63970 | 25.87639 | 3985 ft | 122 kts | 52° |
| 2026-04-26 12:33 | 60.64304 | 25.89220 | 3986 ft | 121 kts | 52° |
| 2026-04-26 12:33 | 60.64639 | 25.90801 | 3995 ft | 122 kts | 52° |
| 2026-04-26 12:33 | 60.64977 | 25.92397 | 3984 ft | 123 kts | 51° |
| 2026-04-26 12:33 | 60.65312 | 25.93976 | 3982 ft | 123 kts | 51° |
| 2026-04-26 12:34 | 60.65652 | 25.95587 | 3974 ft | 121 kts | 51° |
| 2026-04-26 12:34 | 60.65984 | 25.97165 | 3982 ft | 121 kts | 51° |
| 2026-04-26 12:34 | 60.66205 | 25.98207 | 3994 ft | 121 kts | 51° |
| 2026-04-26 12:34 | 60.66649 | 26.00313 | 3978 ft | 120 kts | 51° |
| 2026-04-26 12:35 | 60.66979 | 26.01877 | 3979 ft | 120 kts | 52° |
| 2026-04-26 12:35 | 60.67307 | 26.03427 | 3987 ft | 121 kts | 52° |
| 2026-04-26 12:35 | 60.67642 | 26.05019 | 3988 ft | 123 kts | 52° |
| 2026-04-26 12:35 | 60.67976 | 26.06625 | 3985 ft | 123 kts | 52° |
| 2026-04-26 12:36 | 60.68311 | 26.08229 | 3970 ft | 122 kts | 52° |
| 2026-04-26 12:36 | 60.68643 | 26.09818 | 3961 ft | 120 kts | 52° |
| 2026-04-26 12:36 | 60.68860 | 26.10852 | 3979 ft | 120 kts | 51° |
| 2026-04-26 12:36 | 60.69191 | 26.12417 | 3975 ft | 120 kts | 51° |
| 2026-04-26 12:37 | 60.69521 | 26.13988 | 3978 ft | 120 kts | 51° |
| 2026-04-26 12:37 | 60.69850 | 26.15560 | 3977 ft | 121 kts | 52° |
| 2026-04-26 12:37 | 60.70286 | 26.17648 | 3972 ft | 121 kts | 52° |
| 2026-04-26 12:37 | 60.70508 | 26.18711 | 3968 ft | 120 kts | 52° |
| 2026-04-26 12:38 | 60.70835 | 26.20287 | 3971 ft | 120 kts | 52° |
| 2026-04-26 12:38 | 60.71163 | 26.21855 | 3976 ft | 120 kts | 52° |
| 2026-04-26 12:38 | 60.71488 | 26.23410 | 3967 ft | 119 kts | 52° |
| 2026-04-26 12:38 | 60.71810 | 26.24963 | 3979 ft | 120 kts | 52° |
| 2026-04-26 12:39 | 60.72137 | 26.26539 | 3972 ft | 121 kts | 52° |
| 2026-04-26 12:39 | 60.72463 | 26.28112 | 3966 ft | 120 kts | 51° |
| 2026-04-26 12:39 | 60.72792 | 26.29681 | 3966 ft | 120 kts | 51° |
| 2026-04-26 12:39 | 60.73118 | 26.31250 | 3964 ft | 120 kts | 52° |
| 2026-04-26 12:40 | 60.73442 | 26.32814 | 3961 ft | 119 kts | 52° |
| 2026-04-26 12:40 | 60.73763 | 26.34374 | 3957 ft | 118 kts | 51° |
| 2026-04-26 12:40 | 60.74097 | 26.35950 | 3825 ft | 126 kts | 51° |
| 2026-04-26 12:40 | 60.74442 | 26.37489 | 3852 ft | 120 kts | 49° |
| 2026-04-26 12:41 | 60.74821 | 26.39106 | 3492 ft | 137 kts | 53° |
| 2026-04-26 12:41 | 60.75231 | 26.40930 | 3165 ft | 140 kts | 51° |
| 2026-04-26 12:41 | 60.75583 | 26.42739 | 3112 ft | 134 kts | 56° |
| 2026-04-26 12:41 | 60.75846 | 26.44563 | 2993 ft | 136 kts | 60° |
| 2026-04-26 12:42 | 60.76114 | 26.46481 | 2717 ft | 142 kts | 59° |
| 2026-04-26 12:42 | 60.76426 | 26.48435 | 2421 ft | 143 kts | 57° |
| 2026-04-26 12:42 | 60.76788 | 26.50396 | 853 ft | 174 kts | 56° |
| 2026-04-26 12:42 | 60.77240 | 26.52492 | 596 ft | 150 kts | 56° |
| 2026-04-26 12:43 | 60.77627 | 26.54367 | 545 ft | 136 kts | 56° |
| 2026-04-26 12:43 | 60.78060 | 26.55981 | 567 ft | 125 kts | 46° |
| 2026-04-26 12:43 | 60.78576 | 26.57410 | 278 ft | 136 kts | 41° |
| 2026-04-26 12:43 | 60.79134 | 26.58510 | 341 ft | 110 kts | 31° |
| 2026-04-26 12:44 | 60.79687 | 26.59508 | 394 ft | 107 kts | 31° |
| 2026-04-26 12:44 | 60.80251 | 26.60453 | 317 ft | 111 kts | 27° |
| 2026-04-26 12:44 | 60.80932 | 26.61174 | 206 ft | 106 kts | 18° |
| 2026-04-26 12:44 | 60.81374 | 26.62109 | 591 ft | 57 kts | 26° |
| 2026-04-26 12:45 | 60.81755 | 26.62796 | 612 ft | 84 kts | 30° |
| 2026-04-26 12:45 | 60.82194 | 26.63715 | 703 ft | 89 kts | 36° |
| 2026-04-26 12:45 | 60.82584 | 26.64725 | 889 ft | 83 kts | 43° |
| 2026-04-26 12:45 | 60.82988 | 26.65846 | 663 ft | 109 kts | 39° |
| 2026-04-26 12:46 | 60.83486 | 26.67021 | 599 ft | 115 kts | 41° |
| 2026-04-26 12:46 | 60.83898 | 26.68384 | 675 ft | 109 kts | 49° |
| 2026-04-26 12:46 | 60.84008 | 26.69856 | 903 ft | 106 kts | 76° |
| 2026-04-26 12:46 | 60.84304 | 26.70924 | 1054 ft | 83 kts | 34° |
| 2026-04-26 12:47 | 60.84695 | 26.71814 | 1198 ft | 85 kts | 29° |
| 2026-04-26 12:47 | 60.85200 | 26.72609 | 1085 ft | 99 kts | 23° |
| 2026-04-26 12:47 | 60.85838 | 26.73350 | 927 ft | 108 kts | 19° |
| 2026-04-26 12:47 | 60.86426 | 26.74294 | 718 ft | 117 kts | 53° |
| 2026-04-26 12:48 | 60.86759 | 26.75788 | 774 ft | 109 kts | 47° |
| 2026-04-26 12:48 | 60.87173 | 26.77025 | 830 ft | 102 kts | 38° |
| 2026-04-26 12:48 | 60.87486 | 26.78409 | 849 ft | 108 kts | 53° |
| 2026-04-26 12:48 | 60.87809 | 26.79843 | 823 ft | 109 kts | 47° |
| 2026-04-26 12:49 | 60.88203 | 26.81105 | 907 ft | 106 kts | 53° |
| 2026-04-26 12:49 | 60.88348 | 26.82561 | 860 ft | 104 kts | 69° |
| 2026-04-26 12:49 | 60.88580 | 26.83906 | 911 ft | 80 kts | 41° |
| 2026-04-26 12:49 | 60.88698 | 26.85254 | 781 ft | 92 kts | 67° |
| 2026-04-26 12:50 | 60.88801 | 26.86281 | 652 ft | 63 kts | 52° |
| 2026-04-26 12:50 | 60.88976 | 26.87011 | 591 ft | 53 kts | 38° |
| 2026-04-26 12:50 | 60.89001 | 26.87869 | 543 ft | 60 kts | 61° |
| 2026-04-26 12:50 | 60.89056 | 26.88701 | 500 ft | 57 kts | 51° |
| 2026-04-26 12:51 | 60.89180 | 26.89507 | 540 ft | 63 kts | 62° |
| 2026-04-26 12:51 | 60.89275 | 26.90388 | 530 ft | 64 kts | 52° |
| 2026-04-26 12:51 | 60.89366 | 26.91313 | 513 ft | 68 kts | 54° |
| 2026-04-26 12:51 | 60.89463 | 26.92183 | 367 ft | 56 kts | 53° |
| 2026-04-26 12:52 | 60.89542 | 26.92625 | 333 ft | 1 kts | 60° |
| 2026-04-26 12:52 | 60.89532 | 26.92681 | 332 ft | 5 kts | 152° |
| 2026-04-26 12:52 | 60.89526 | 26.92692 | 334 ft | 4 kts | 128° |
| 2026-04-26 12:52 | 60.89529 | 26.92751 | 335 ft | 2 kts | 76° |
| 2026-04-26 12:53 | 60.89530 | 26.92758 | 336 ft | 0 kts | 76° |
| 2026-04-26 12:53 | 60.89530 | 26.92795 | 336 ft | 17 kts | 78° |
| 2026-04-26 12:53 | 60.89530 | 26.92918 | 334 ft | 14 kts | 143° |
| 2026-04-26 12:53 | 60.89425 | 26.92971 | 335 ft | 21 kts | 173° |
| 2026-04-26 12:54 | 60.89321 | 26.93015 | 333 ft | 15 kts | 163° |
| 2026-04-26 12:54 | 60.89223 | 26.93068 | 333 ft | 15 kts | 176° |
| 2026-04-26 12:54 | 60.89176 | 26.93083 | 334 ft | 16 kts | 154° |